Time;durP1;ratioP1;P1;durP2;ratioP2;P2;SDS_P1;SDS_P2;PMS_P1;PMS_P2;Temp;Humidity;BMP_temperature;BMP_pressure;BME280_temperature;BME280_humidity;BME280_pressure;Samples;Min_cycle;Max_cycle;Signal;HPM_P1;HPM_P2
2023/06/02 00:01:28;;;;;;;;;;;24.50;43.90;;;;;;1536838;77;1676;-62
2023/06/02 00:03:32;;;;;;;;;;;24.50;43.90;;;;;;1538084;76;1668;-63
2023/06/02 00:05:32;;;;;;;;;;;24.50;43.90;;;;;;1536722;77;1684;-63
2023/06/02 00:07:37;;;;;;;;;;;24.50;43.90;;;;;;1524329;77;1183;-63
2023/06/02 00:09:38;;;;;;;;;;;24.50;43.80;;;;;;1524450;77;1941;-64
2023/06/02 00:11:40;;;;;;;;;;;24.50;43.80;;;;;;1528466;77;742;-63
2023/06/02 00:13:42;;;;;;;;;;;24.50;43.90;;;;;;1529246;77;737;-62
2023/06/02 00:15:44;;;;;;;;;;;24.50;43.80;;;;;;1525760;77;1457;-62
2023/06/02 00:17:46;;;;;;;;;;;24.50;43.80;;;;;;1532165;77;1169;-62
2023/06/02 00:19:48;;;;;;;;;;;24.50;43.90;;;;;;1520399;77;757;-63
2023/06/02 00:21:53;;;;;;;;;;;24.50;43.90;;;;;;1520373;77;742;-63
2023/06/02 00:23:53;;;;;;;;;;;24.50;44.00;;;;;;1519906;77;1560;-63
2023/06/02 00:25:56;;;;;;;;;;;24.50;44.00;;;;;;1524854;77;851;-63
2023/06/02 00:27:58;;;;;;;;;;;24.50;44.10;;;;;;1518962;77;1550;-63
2023/06/02 00:30:00;;;;;;;;;;;24.50;44.20;;;;;;1526124;77;1940;-64
2023/06/02 00:32:02;;;;;;;;;;;24.50;44.20;;;;;;1526769;77;794;-64
2023/06/02 00:34:04;;;;;;;;;;;24.50;44.20;;;;;;1529311;77;706;-63
2023/06/02 00:36:06;;;;;;;;;;;24.40;44.10;;;;;;1521590;77;784;-62
2023/06/02 00:38:07;;;;;;;;;;;24.40;44.20;;;;;;1522545;77;1142;-64
2023/06/02 00:40:10;;;;;;;;;;;24.40;44.30;;;;;;1529335;77;774;-63
2023/06/02 00:42:11;;;;;;;;;;;24.50;44.30;;;;;;1524144;77;1332;-63
2023/06/02 00:44:14;;;;;;;;;;;24.50;44.20;;;;;;1528821;77;684;-62
2023/06/02 00:46:16;;;;;;;;;;;24.50;44.00;;;;;;1527229;77;723;-62
2023/06/02 00:48:18;;;;;;;;;;;24.40;43.90;;;;;;1521896;77;1104;-63
2023/06/02 00:50:19;;;;;;;;;;;24.50;44.00;;;;;;1526898;77;1957;-63
2023/06/02 00:52:21;;;;;;;;;;;24.50;44.10;;;;;;1523971;77;783;-62
2023/06/02 00:54:23;;;;;;;;;;;24.50;44.20;;;;;;1532289;77;756;-62
2023/06/02 00:56:25;;;;;;;;;;;24.50;44.10;;;;;;1524198;77;1503;-62
2023/06/02 00:58:27;;;;;;;;;;;24.50;44.10;;;;;;1523758;77;1156;-62
2023/06/02 01:00:33;;;;;;;;;;;24.50;44.40;;;;;;1539421;77;729;-63
2023/06/02 01:02:34;;;;;;;;;;;24.50;44.30;;;;;;1535019;77;1701;-62
2023/06/02 01:04:36;;;;;;;;;;;24.50;44.20;;;;;;1520751;77;716;-61
2023/06/02 01:06:38;;;;;;;;;;;24.50;44.10;;;;;;1523009;76;1530;-61
2023/06/02 01:08:40;;;;;;;;;;;24.60;44.20;;;;;;1532718;77;1188;-61
2023/06/02 01:10:42;;;;;;;;;;;24.50;44.20;;;;;;1520706;77;1953;-62
2023/06/02 01:12:44;;;;;;;;;;;24.60;44.20;;;;;;1523350;77;769;-62
2023/06/02 01:14:46;;;;;;;;;;;24.50;44.00;;;;;;1520706;77;748;-62
2023/06/02 01:16:51;;;;;;;;;;;24.60;44.30;;;;;;1506382;78;1170;-61
2023/06/02 01:18:53;;;;;;;;;;;24.60;44.20;;;;;;1523786;77;726;-61
2023/06/02 01:20:57;;;;;;;;;;;24.50;44.10;;;;;;1520675;77;775;-62
2023/06/02 01:23:01;;;;;;;;;;;24.60;44.10;;;;;;1525874;77;1660;-62
2023/06/02 01:25:02;;;;;;;;;;;24.60;44.20;;;;;;1537745;76;1718;-62
2023/06/02 01:27:06;;;;;;;;;;;24.50;44.20;;;;;;1533096;76;1143;-62
2023/06/02 01:29:08;;;;;;;;;;;24.50;44.10;;;;;;1530116;76;774;-61
2023/06/02 01:31:14;;;;;;;;;;;24.60;44.20;;;;;;1540325;76;1943;-63
2023/06/02 01:33:23;;;;;;;;;;;24.60;44.20;;;;;;1534088;76;1126;-61
2023/06/02 01:35:26;;;;;;;;;;;24.60;44.20;;;;;;1540519;76;816;-62
2023/06/02 01:37:28;;;;;;;;;;;24.50;44.10;;;;;;1534350;76;1138;-61
2023/06/02 01:39:30;;;;;;;;;;;24.50;44.10;;;;;;1535387;76;1518;-62
2023/06/02 01:41:32;;;;;;;;;;;24.60;44.10;;;;;;1541726;76;821;-62
2023/06/02 01:43:34;;;;;;;;;;;24.50;44.20;;;;;;1529836;76;791;-62
2023/06/02 01:45:36;;;;;;;;;;;24.60;44.20;;;;;;1528838;76;774;-62
2023/06/02 01:47:38;;;;;;;;;;;24.50;44.40;;;;;;1534163;76;1134;-62
2023/06/02 01:49:40;;;;;;;;;;;24.50;44.30;;;;;;1533453;76;698;-62
2023/06/02 01:51:42;;;;;;;;;;;24.50;44.50;;;;;;1540838;76;1948;-63
2023/06/02 01:53:44;;;;;;;;;;;24.60;44.30;;;;;;1536961;76;1607;-63
2023/06/02 01:55:51;;;;;;;;;;;24.50;44.60;;;;;;1536129;76;744;-62
2023/06/02 01:57:50;;;;;;;;;;;24.50;44.40;;;;;;1526812;76;1244;-63
2023/06/02 01:59:52;;;;;;;;;;;24.50;44.40;;;;;;1537795;76;762;-62
2023/06/02 02:01:54;;;;;;;;;;;24.50;44.40;;;;;;1530949;76;766;-64
2023/06/02 02:03:56;;;;;;;;;;;24.50;44.40;;;;;;1538840;76;851;-63
2023/06/02 02:05:58;;;;;;;;;;;24.50;44.50;;;;;;1547965;76;761;-62
2023/06/02 02:07:59;;;;;;;;;;;24.50;44.60;;;;;;1556808;75;1703;-62
2023/06/02 02:10:02;;;;;;;;;;;24.50;44.70;;;;;;1554325;75;1943;-62
2023/06/02 02:12:05;;;;;;;;;;;24.50;44.60;;;;;;1551782;75;868;-63
2023/06/02 02:14:07;;;;;;;;;;;24.50;44.60;;;;;;1551309;75;764;-62
2023/06/02 02:16:08;;;;;;;;;;;24.50;44.70;;;;;;1554530;75;761;-62
2023/06/02 02:18:12;;;;;;;;;;;24.50;44.70;;;;;;1546771;75;1168;-64
2023/06/02 02:20:17;;;;;;;;;;;24.50;44.50;;;;;;1548320;75;779;-64
2023/06/02 02:22:18;;;;;;;;;;;24.50;44.50;;;;;;1557014;75;1721;-62
2023/06/02 02:24:20;;;;;;;;;;;24.50;44.60;;;;;;1551152;75;708;-61
2023/06/02 02:26:23;;;;;;;;;;;24.50;44.60;;;;;;1559421;75;718;-61
2023/06/02 02:28:25;;;;;;;;;;;24.50;44.60;;;;;;1556484;75;1083;-62
2023/06/02 02:30:27;;;;;;;;;;;24.50;44.60;;;;;;1566402;75;1942;-61
2023/06/02 02:32:29;;;;;;;;;;;24.50;44.70;;;;;;1555371;75;797;-62
2023/06/02 02:34:33;;;;;;;;;;;24.60;44.70;;;;;;1556843;75;1316;-61
2023/06/02 02:36:34;;;;;;;;;;;24.60;44.70;;;;;;1555818;75;2026;-62
2023/06/02 02:38:36;;;;;;;;;;;24.50;44.70;;;;;;1592965;73;1117;-62
2023/06/02 02:40:38;;;;;;;;;;;24.50;44.70;;;;;;1592655;73;737;-63
2023/06/02 02:42:40;;;;;;;;;;;24.50;44.70;;;;;;1598848;73;659;-63
2023/06/02 02:44:42;;;;;;;;;;;24.50;44.60;;;;;;1603265;73;705;-63
2023/06/02 02:46:44;;;;;;;;;;;24.50;44.60;;;;;;1589980;73;736;-64
2023/06/02 02:48:46;;;;;;;;;;;24.50;44.70;;;;;;1594854;73;1209;-63
2023/06/02 02:50:48;;;;;;;;;;;24.50;44.70;;;;;;1596037;73;1936;-64
2023/06/02 02:52:49;;;;;;;;;;;24.50;44.70;;;;;;1601047;73;746;-63
2023/06/02 02:54:51;;;;;;;;;;;24.50;44.70;;;;;;1595910;73;720;-63
2023/06/02 02:56:53;;;;;;;;;;;24.50;44.70;;;;;;1594798;73;1161;-62
2023/06/02 02:58:56;;;;;;;;;;;24.50;44.70;;;;;;1600297;73;890;-62
2023/06/02 03:00:58;;;;;;;;;;;24.50;44.70;;;;;;1596472;73;613;-62
2023/06/02 03:03:01;;;;;;;;;;;24.50;44.70;;;;;;1597753;73;1528;-62
2023/06/02 03:05:03;;;;;;;;;;;24.50;44.70;;;;;;1597921;73;780;-63
2023/06/02 03:07:05;;;;;;;;;;;24.50;44.70;;;;;;1600398;73;1139;-62
2023/06/02 03:09:10;;;;;;;;;;;24.50;44.70;;;;;;1592621;74;1067;-63
2023/06/02 03:11:13;;;;;;;;;;;24.50;44.70;;;;;;1590646;74;1941;-63
2023/06/02 03:13:15;;;;;;;;;;;24.50;44.70;;;;;;1583879;74;763;-62
2023/06/02 03:15:17;;;;;;;;;;;24.50;44.70;;;;;;1591161;74;768;-63
2023/06/02 03:17:20;;;;;;;;;;;24.50;44.80;;;;;;1588617;74;1533;-62
2023/06/02 03:19:24;;;;;;;;;;;24.50;44.80;;;;;;1586195;74;760;-63
2023/06/02 03:21:26;;;;;;;;;;;24.50;44.90;;;;;;1589191;74;1669;-62
2023/06/02 03:23:28;;;;;;;;;;;24.50;44.80;;;;;;1596561;74;687;-62
2023/06/02 03:25:30;;;;;;;;;;;24.50;44.80;;;;;;1582423;74;805;-63
2023/06/02 03:27:32;;;;;;;;;;;24.50;44.80;;;;;;1587095;74;1076;-62
2023/06/02 03:29:34;;;;;;;;;;;24.50;45.20;;;;;;1585710;74;814;-62
2023/06/02 03:31:36;;;;;;;;;;;24.50;45.40;;;;;;1582289;74;1939;-62
2023/06/02 03:33:38;;;;;;;;;;;24.40;45.10;;;;;;1583821;74;673;-62
2023/06/02 03:35:40;;;;;;;;;;;24.50;45.10;;;;;;1584145;74;664;-62
2023/06/02 03:37:42;;;;;;;;;;;24.50;45.10;;;;;;1583014;74;1107;-63
2023/06/02 03:39:43;;;;;;;;;;;24.50;45.00;;;;;;1585537;74;770;-63
2023/06/02 03:41:45;;;;;;;;;;;24.50;45.10;;;;;;1586072;74;800;-63
2023/06/02 03:43:47;;;;;;;;;;;24.50;45.00;;;;;;1581458;74;769;-62
2023/06/02 03:45:49;;;;;;;;;;;24.50;45.00;;;;;;1588692;74;1497;-62
2023/06/02 03:47:51;;;;;;;;;;;24.50;45.00;;;;;;1582233;74;1177;-62
2023/06/02 03:49:53;;;;;;;;;;;24.50;45.00;;;;;;1591575;74;810;-62
2023/06/02 03:51:55;;;;;;;;;;;24.50;45.00;;;;;;1588643;74;1946;-62
2023/06/02 03:53:57;;;;;;;;;;;24.50;44.90;;;;;;1587413;74;712;-63
2023/06/02 03:55:58;;;;;;;;;;;24.50;45.10;;;;;;1584410;74;796;-63
2023/06/02 03:58:00;;;;;;;;;;;24.50;45.00;;;;;;1584451;74;1177;-65
2023/06/02 04:00:04;;;;;;;;;;;24.50;45.30;;;;;;1589751;74;1535;-64
2023/06/02 04:02:06;;;;;;;;;;;24.60;45.20;;;;;;1588923;74;886;-64
2023/06/02 04:04:12;;;;;;;;;;;24.60;45.00;;;;;;1583834;74;713;-64
2023/06/02 04:06:11;;;;;;;;;;;24.50;44.90;;;;;;1595605;74;1551;-64
2023/06/02 04:08:14;;;;;;;;;;;24.60;44.70;;;;;;1580014;74;1132;-63
2023/06/02 04:10:16;;;;;;;;;;;24.50;44.70;;;;;;1595821;73;989;-64
2023/06/02 04:12:18;;;;;;;;;;;24.60;44.60;;;;;;1594188;73;1930;-64
2023/06/02 04:14:20;;;;;;;;;;;24.50;44.70;;;;;;1587444;73;1491;-64
2023/06/02 04:16:22;;;;;;;;;;;24.50;44.70;;;;;;1585595;73;728;-64
2023/06/02 04:18:23;;;;;;;;;;;24.50;44.60;;;;;;1592781;73;1158;-64
2023/06/02 04:20:25;;;;;;;;;;;24.40;44.40;;;;;;1589916;73;715;-63
2023/06/02 04:22:27;;;;;;;;;;;24.50;44.50;;;;;;1593349;73;713;-64
2023/06/02 04:24:29;;;;;;;;;;;24.40;44.40;;;;;;1586011;73;1240;-63
2023/06/02 04:26:31;;;;;;;;;;;24.40;44.60;;;;;;1586801;73;1495;-64
2023/06/02 04:28:33;;;;;;;;;;;24.50;44.70;;;;;;1590130;73;1382;-63
2023/06/02 04:30:39;;;;;;;;;;;24.50;44.60;;;;;;1595074;73;1082;-62
2023/06/02 04:32:38;;;;;;;;;;;24.50;44.60;;;;;;1588002;73;1940;-63
2023/06/02 04:34:40;;;;;;;;;;;24.40;44.10;;;;;;1593589;73;1230;-63
2023/06/02 04:36:42;;;;;;;;;;;24.40;43.80;;;;;;1585981;73;1267;-63
2023/06/02 04:38:45;;;;;;;;;;;24.40;43.40;;;;;;1596225;73;1563;-63
2023/06/02 04:40:47;;;;;;;;;;;24.40;43.10;;;;;;1589690;73;1300;-63
2023/06/02 04:42:49;;;;;;;;;;;24.30;42.80;;;;;;1584645;73;1286;-62
2023/06/02 04:44:51;;;;;;;;;;;24.40;42.60;;;;;;1584482;73;1349;-63
2023/06/02 04:46:53;;;;;;;;;;;24.30;42.50;;;;;;1591361;73;1367;-62
2023/06/02 04:48:55;;;;;;;;;;;24.30;42.60;;;;;;1588243;73;1475;-63
2023/06/02 04:50:56;;;;;;;;;;;24.30;42.80;;;;;;1590312;73;1935;-63
2023/06/02 04:52:58;;;;;;;;;;;24.30;43.00;;;;;;1588217;73;1364;-63
2023/06/02 04:55:00;;;;;;;;;;;24.40;43.10;;;;;;1588497;73;1292;-64
2023/06/02 04:57:06;;;;;;;;;;;24.30;43.20;;;;;;1592866;73;1212;-64
2023/06/02 04:59:08;;;;;;;;;;;24.30;43.50;;;;;;1577259;73;1091;-62
2023/06/02 05:01:09;;;;;;;;;;;24.30;43.90;;;;;;1588871;73;1308;-64
2023/06/02 05:03:11;;;;;;;;;;;24.40;43.60;;;;;;1592128;73;1462;-64
2023/06/02 05:05:13;;;;;;;;;;;24.40;43.40;;;;;;1593252;73;1286;-63
2023/06/02 05:07:15;;;;;;;;;;;24.50;43.30;;;;;;1587778;73;1305;-62
2023/06/02 05:09:17;;;;;;;;;;;24.50;42.90;;;;;;1549555;75;1521;-63
2023/06/02 05:11:20;;;;;;;;;;;24.60;42.80;;;;;;1585622;74;1931;-63
2023/06/02 05:13:23;;;;;;;;;;;24.70;42.70;;;;;;1597254;73;1331;-63
2023/06/02 05:15:25;;;;;;;;;;;24.70;42.60;;;;;;1585069;74;733;-62
2023/06/02 05:17:30;;;;;;;;;;;24.70;42.50;;;;;;1590084;74;1198;-63
2023/06/02 05:19:33;;;;;;;;;;;24.80;42.40;;;;;;1592700;74;899;-63
2023/06/02 05:21:35;;;;;;;;;;;24.80;42.20;;;;;;1592665;74;692;-63
2023/06/02 05:23:39;;;;;;;;;;;24.80;42.20;;;;;;1595038;73;1574;-63
2023/06/02 05:25:40;;;;;;;;;;;24.80;42.00;;;;;;1585565;73;1680;-63
2023/06/02 05:27:42;;;;;;;;;;;24.80;41.80;;;;;;1590157;73;1144;-62
2023/06/02 05:29:44;;;;;;;;;;;24.90;41.60;;;;;;1589868;74;752;-62
2023/06/02 05:31:46;;;;;;;;;;;24.90;41.50;;;;;;1594549;74;1935;-62
2023/06/02 05:33:48;;;;;;;;;;;24.90;41.30;;;;;;1590961;74;723;-62
2023/06/02 05:35:50;;;;;;;;;;;24.90;41.00;;;;;;1599481;74;707;-62
2023/06/02 05:37:52;;;;;;;;;;;24.90;40.70;;;;;;1595344;74;1475;-64
2023/06/02 05:39:54;;;;;;;;;;;24.90;40.60;;;;;;1593734;74;780;-63
2023/06/02 05:41:56;;;;;;;;;;;24.90;40.50;;;;;;1593673;74;1239;-63
2023/06/02 05:43:58;;;;;;;;;;;24.90;40.30;;;;;;1585132;74;704;-63
2023/06/02 05:46:00;;;;;;;;;;;24.90;40.30;;;;;;1593695;73;654;-63
2023/06/02 05:48:01;;;;;;;;;;;25.00;40.20;;;;;;1581695;74;1152;-63
2023/06/02 05:50:03;;;;;;;;;;;25.00;40.10;;;;;;1588667;74;687;-63
2023/06/02 05:52:06;;;;;;;;;;;25.00;39.90;;;;;;1600106;74;1930;-62
2023/06/02 05:54:08;;;;;;;;;;;25.10;39.90;;;;;;1600003;74;889;-63
2023/06/02 05:56:10;;;;;;;;;;;25.00;39.80;;;;;;1598119;73;751;-63
2023/06/02 05:58:12;;;;;;;;;;;25.10;39.60;;;;;;1592087;73;1163;-62
2023/06/02 06:00:15;;;;;;;;;;;25.00;39.50;;;;;;1594930;74;658;-62
2023/06/02 06:02:16;;;;;;;;;;;25.10;39.40;;;;;;1587334;74;762;-62
2023/06/02 06:04:18;;;;;;;;;;;25.10;39.30;;;;;;1597508;74;761;-62
2023/06/02 06:06:20;;;;;;;;;;;25.10;39.40;;;;;;1593997;74;1356;-63
2023/06/02 06:08:22;;;;;;;;;;;25.10;39.50;;;;;;1587868;73;1125;-63
2023/06/02 06:10:24;;;;;;;;;;;25.10;39.20;;;;;;1594051;73;1034;-63
2023/06/02 06:12:26;;;;;;;;;;;25.10;39.20;;;;;;1593917;74;1941;-64
2023/06/02 06:14:28;;;;;;;;;;;25.10;39.30;;;;;;1594034;74;726;-62
2023/06/02 06:16:30;;;;;;;;;;;25.30;39.20;;;;;;1599100;74;679;-63
2023/06/02 06:18:32;;;;;;;;;;;25.30;38.90;;;;;;1600437;74;1155;-62
2023/06/02 06:20:33;;;;;;;;;;;25.30;38.90;;;;;;1588954;74;1538;-63
2023/06/02 06:22:35;;;;;;;;;;;25.30;38.70;;;;;;1589767;74;785;-63
2023/06/02 06:24:37;;;;;;;;;;;25.40;38.60;;;;;;1600398;73;778;-63
2023/06/02 06:26:40;;;;;;;;;;;25.30;38.60;;;;;;1597411;74;722;-62
2023/06/02 06:28:44;;;;;;;;;;;25.30;38.40;;;;;;1591435;74;1097;-63
2023/06/02 06:30:46;;;;;;;;;;;25.50;38.30;;;;;;1584065;74;810;-62
2023/06/02 06:32:48;;;;;;;;;;;25.40;38.20;;;;;;1597464;74;1928;-63
2023/06/02 06:34:50;;;;;;;;;;;25.40;38.10;;;;;;1599109;74;1634;-63
2023/06/02 06:36:52;;;;;;;;;;;25.50;37.30;;;;;;1586318;74;1113;-63
2023/06/02 06:38:54;;;;;;;;;;;25.30;37.60;;;;;;1595910;73;831;-63
2023/06/02 06:40:56;;;;;;;;;;;25.30;38.00;;;;;;1584442;74;837;-62
2023/06/02 06:42:58;;;;;;;;;;;25.40;38.10;;;;;;1587449;74;1253;-62
2023/06/02 06:44:59;;;;;;;;;;;25.40;37.90;;;;;;1594185;74;768;-63
2023/06/02 06:47:01;;;;;;;;;;;25.50;37.70;;;;;;1595731;74;1136;-62
2023/06/02 06:49:03;;;;;;;;;;;25.50;37.80;;;;;;1592313;74;1355;-62
2023/06/02 06:51:05;;;;;;;;;;;25.50;37.70;;;;;;1589780;73;919;-62
2023/06/02 06:53:08;;;;;;;;;;;25.50;37.70;;;;;;1589537;73;1926;-62
2023/06/02 06:55:10;;;;;;;;;;;25.60;37.70;;;;;;1587478;74;679;-63
2023/06/02 06:57:12;;;;;;;;;;;25.50;35.70;;;;;;1593285;73;1132;-63
2023/06/02 06:59:14;;;;;;;;;;;25.30;37.60;;;;;;1595662;74;827;-62
2023/06/02 07:01:16;;;;;;;;;;;25.30;38.00;;;;;;1592781;74;699;-63
2023/06/02 07:03:17;;;;;;;;;;;25.50;37.70;;;;;;1594528;74;1534;-64
2023/06/02 07:05:20;;;;;;;;;;;25.50;37.80;;;;;;1589586;74;756;-63
2023/06/02 07:07:21;;;;;;;;;;;25.50;37.70;;;;;;1594874;73;1186;-63
2023/06/02 07:09:23;;;;;;;;;;;25.60;37.60;;;;;;1592575;74;756;-61
2023/06/02 07:11:26;;;;;;;;;;;25.50;37.60;;;;;;1593141;73;1112;-63
2023/06/02 07:13:28;;;;;;;;;;;25.50;37.60;;;;;;1584459;73;1922;-64
2023/06/02 07:15:30;;;;;;;;;;;25.60;37.80;;;;;;1589631;73;735;-63
2023/06/02 07:17:31;;;;;;;;;;;25.60;37.70;;;;;;1588857;73;1710;-63
2023/06/02 07:19:33;;;;;;;;;;;25.50;37.20;;;;;;1596763;73;718;-63
2023/06/02 07:21:36;;;;;;;;;;;25.50;37.60;;;;;;1581323;73;766;-63
2023/06/02 07:23:38;;;;;;;;;;;25.50;37.00;;;;;;1579948;73;670;-61
2023/06/02 07:25:40;;;;;;;;;;;25.50;37.70;;;;;;1588687;73;774;-62
2023/06/02 07:27:42;;;;;;;;;;;25.50;36.70;;;;;;1583544;73;1138;-64
2023/06/02 07:29:44;;;;;;;;;;;25.50;37.50;;;;;;1585224;73;1521;-63
2023/06/02 07:31:46;;;;;;;;;;;25.40;37.00;;;;;;1579532;73;693;-62
2023/06/02 07:33:48;;;;;;;;;;;25.40;36.50;;;;;;1581576;73;1931;-62
2023/06/02 07:35:50;;;;;;;;;;;25.40;37.30;;;;;;1587693;73;746;-62
2023/06/02 07:37:53;;;;;;;;;;;25.50;37.40;;;;;;1600651;73;1124;-63
2023/06/02 07:39:55;;;;;;;;;;;25.50;37.30;;;;;;1586846;73;1055;-63
2023/06/02 07:41:56;;;;;;;;;;;25.50;37.40;;;;;;1589219;73;1313;-62
2023/06/02 07:43:58;;;;;;;;;;;25.50;37.10;;;;;;1594198;73;1478;-64
2023/06/02 07:46:00;;;;;;;;;;;25.50;37.30;;;;;;1594815;73;1339;-64
2023/06/02 07:48:02;;;;;;;;;;;25.60;37.30;;;;;;1591414;73;1335;-64
2023/06/02 07:50:04;;;;;;;;;;;25.60;36.90;;;;;;1590104;73;1292;-64
2023/06/02 07:52:06;;;;;;;;;;;25.50;37.30;;;;;;1588302;73;1915;-63
2023/06/02 07:54:08;;;;;;;;;;;25.60;36.90;;;;;;1596912;73;1314;-64
2023/06/02 07:56:10;;;;;;;;;;;25.70;37.30;;;;;;1591758;73;1079;-64
2023/06/02 07:58:12;;;;;;;;;;;25.60;37.30;;;;;;1590016;73;1540;-64
2023/06/02 08:00:15;;;;;;;;;;;25.70;37.10;;;;;;1593450;73;1123;-64
2023/06/02 08:02:16;;;;;;;;;;;25.70;37.00;;;;;;1594642;73;1476;-64
2023/06/02 08:04:18;;;;;;;;;;;25.60;35.80;;;;;;1584209;73;1356;-64
2023/06/02 08:06:20;;;;;;;;;;;25.70;36.80;;;;;;1590315;73;1352;-64
2023/06/02 08:08:22;;;;;;;;;;;25.50;35.00;;;;;;1583891;73;1412;-64
2023/06/02 08:10:24;;;;;;;;;;;25.30;36.90;;;;;;1588464;73;1352;-64
2023/06/02 08:12:26;;;;;;;;;;;25.40;36.90;;;;;;1580587;73;1943;-64
2023/06/02 08:14:28;;;;;;;;;;;25.40;37.00;;;;;;1587700;73;1321;-64
2023/06/02 08:16:30;;;;;;;;;;;25.50;37.10;;;;;;1599171;73;1373;-64
2023/06/02 08:18:32;;;;;;;;;;;25.50;37.00;;;;;;1588820;73;1373;-64
2023/06/02 08:20:33;;;;;;;;;;;25.50;36.90;;;;;;1582306;73;1474;-64
2023/06/02 08:22:36;;;;;;;;;;;25.50;37.00;;;;;;1586007;73;1341;-64
2023/06/02 08:24:38;;;;;;;;;;;25.60;36.90;;;;;;1589078;73;1370;-64
2023/06/02 08:26:41;;;;;;;;;;;25.60;36.90;;;;;;1591347;73;1262;-64
2023/06/02 08:28:42;;;;;;;;;;;25.60;36.20;;;;;;1591394;73;1270;-64
2023/06/02 08:30:46;;;;;;;;;;;25.50;37.10;;;;;;1592762;73;1229;-64
2023/06/02 08:32:48;;;;;;;;;;;25.50;37.10;;;;;;1594127;73;1929;-64
2023/06/02 08:35:01;;;;;;;;;;;25.30;36.70;;;;;;1585007;73;1445;-64
2023/06/02 08:36:57;;;;;;;;;;;25.40;37.20;;;;;;1581228;73;1668;-64
2023/06/02 08:39:05;;;;;;;;;;;25.40;37.30;;;;;;1595577;73;1429;-64
2023/06/02 08:41:02;;;;;;;;;;;25.40;37.30;;;;;;1588392;73;1628;-65
2023/06/02 08:43:06;;;;;;;;;;;25.40;37.30;;;;;;1583596;73;1352;-64
2023/06/02 08:45:09;;;;;;;;;;;25.40;35.90;;;;;;1587633;73;1230;-64
2023/06/02 08:47:13;;;;;;;;;;;25.30;37.20;;;;;;1584601;73;1523;-64
2023/06/02 08:49:18;;;;;;;;;;;25.40;37.40;;;;;;1581615;73;1262;-64
2023/06/02 08:51:25;;;;;;;;;;;25.40;37.40;;;;;;1597174;73;1306;-65
2023/06/02 08:53:24;;;;;;;;;;;25.50;37.40;;;;;;1586122;73;1914;-61
2023/06/02 08:55:27;;;;;;;;;;;25.50;37.20;;;;;;1590277;73;1204;-63
2023/06/02 08:57:29;;;;;;;;;;;25.50;35.90;;;;;;1589568;73;1414;-63
2023/06/02 08:59:32;;;;;;;;;;;25.40;36.40;;;;;;1590003;73;1416;-62
2023/06/02 09:01:34;;;;;;;;;;;25.40;36.80;;;;;;1593386;73;1305;-63
2023/06/02 09:03:36;;;;;;;;;;;25.30;36.90;;;;;;1594200;73;1330;-63
2023/06/02 09:05:38;;;;;;;;;;;25.20;37.00;;;;;;1591627;73;1282;-63
2023/06/02 09:07:40;;;;;;;;;;;25.30;37.60;;;;;;1595365;73;1311;-63
2023/06/02 09:09:46;;;;;;;;;;;25.40;37.50;;;;;;1585411;73;1554;-63
2023/06/02 09:11:59;;;;;;;;;;;25.40;37.40;;;;;;1587996;73;1310;-63
2023/06/02 09:14:01;;;;;;;;;;;25.30;37.20;;;;;;1584203;74;1923;-62
2023/06/02 09:16:03;;;;;;;;;;;25.30;37.40;;;;;;1583666;74;1360;-63
2023/06/02 09:18:12;;;;;;;;;;;25.30;37.20;;;;;;1602438;74;1373;-63
2023/06/02 09:20:14;;;;;;;;;;;25.30;37.60;;;;;;1586404;74;1522;-63
2023/06/02 09:22:16;;;;;;;;;;;25.30;37.50;;;;;;1587445;74;1466;-63
2023/06/02 09:24:35;;;;;;;;;;;25.30;37.70;;;;;;1589086;74;1336;-63
2023/06/02 09:26:34;;;;;;;;;;;25.30;37.60;;;;;;1585419;74;1522;-64
2023/06/02 09:28:36;;;;;;;;;;;25.30;37.20;;;;;;1558926;75;1382;-63
2023/06/02 09:30:38;;;;;;;;;;;25.30;37.60;;;;;;1583865;74;1674;-62
2023/06/02 09:32:41;;;;;;;;;;;25.30;37.70;;;;;;1584355;74;1944;-63
2023/06/02 09:34:48;;;;;;;;;;;25.40;37.60;;;;;;1589674;74;1661;-64
2023/06/02 09:36:51;;;;;;;;;;;25.20;37.80;;;;;;1584709;74;1443;-61
2023/06/02 09:38:53;;;;;;;;;;;25.40;37.70;;;;;;1594407;74;1229;-63
2023/06/02 09:40:57;;;;;;;;;;;25.30;37.80;;;;;;1592875;74;1050;-63
2023/06/02 09:43:00;;;;;;;;;;;25.30;37.60;;;;;;1593115;74;1562;-62
2023/06/02 09:45:04;;;;;;;;;;;25.40;37.60;;;;;;1595221;74;1334;-63
2023/06/02 09:47:20;;;;;;;;;;;25.20;37.50;;;;;;1582012;74;1113;-62
2023/06/02 09:49:22;;;;;;;;;;;25.20;37.50;;;;;;1583188;74;1424;-63
2023/06/02 09:51:24;;;;;;;;;;;25.10;37.80;;;;;;1584958;74;1432;-61
2023/06/02 09:53:26;;;;;;;;;;;25.20;37.60;;;;;;1590145;74;1930;-63
2023/06/02 09:55:28;;;;;;;;;;;25.10;37.50;;;;;;1587460;74;1280;-63
2023/06/02 09:57:30;;;;;;;;;;;25.20;37.30;;;;;;1594863;74;1315;-64
2023/06/02 09:59:32;;;;;;;;;;;25.10;37.30;;;;;;1591904;74;986;-64
2023/06/02 10:01:34;;;;;;;;;;;25.10;37.20;;;;;;1592514;74;1314;-64
2023/06/02 10:03:36;;;;;;;;;;;25.20;37.10;;;;;;1589923;74;1122;-64
2023/06/02 10:05:38;;;;;;;;;;;25.20;37.30;;;;;;1589956;74;1576;-64
2023/06/02 10:07:42;;;;;;;;;;;25.10;37.30;;;;;;1593916;74;1361;-64
2023/06/02 10:09:45;;;;;;;;;;;25.10;37.40;;;;;;1586084;74;1564;-64
2023/06/02 10:11:58;;;;;;;;;;;25.10;37.40;;;;;;1581612;74;1935;-63
2023/06/02 10:14:17;;;;;;;;;;;25.10;37.40;;;;;;1596733;74;2050;-64
2023/06/02 10:16:37;;;;;;;;;;;25.10;37.40;;;;;;1589204;74;1351;-64
2023/06/02 10:18:49;;;;;;;;;;;25.10;37.30;;;;;;1586706;74;1526;-64
2023/06/02 10:20:56;;;;;;;;;;;25.10;37.70;;;;;;1588825;74;1878;-65
2023/06/02 10:23:02;;;;;;;;;;;25.00;37.50;;;;;;1592327;73;1368;-63
2023/06/02 10:25:15;;;;;;;;;;;24.90;37.60;;;;;;1588798;74;1484;-63
2023/06/02 10:27:24;;;;;;;;;;;24.90;37.90;;;;;;1594228;74;1941;-63
2023/06/02 10:29:28;;;;;;;;;;;24.90;38.00;;;;;;1588438;74;1338;-63
2023/06/02 10:31:31;;;;;;;;;;;24.90;37.90;;;;;;1597020;74;1326;-63
2023/06/02 10:33:43;;;;;;;;;;;24.80;37.40;;;;;;1592111;74;1921;-63
2023/06/02 10:35:58;;;;;;;;;;;24.80;37.80;;;;;;1586680;74;1507;-62
2023/06/02 10:38:18;;;;;;;;;;;24.70;38.10;;;;;;1597347;74;1360;-62
2023/06/02 10:40:21;;;;;;;;;;;24.70;37.00;;;;;;1594517;74;1090;-62
2023/06/02 10:42:27;;;;;;;;;;;24.80;38.10;;;;;;1570007;75;1377;-63
2023/06/02 10:44:31;;;;;;;;;;;24.80;38.30;;;;;;1594790;74;1268;-63
2023/06/02 10:46:32;;;;;;;;;;;24.80;37.00;;;;;;1588479;74;1697;-62
2023/06/02 10:48:37;;;;;;;;;;;24.80;37.80;;;;;;1600219;74;1680;-62
2023/06/02 10:50:54;;;;;;;;;;;24.80;38.10;;;;;;1587971;73;1211;-62
2023/06/02 10:53:01;;;;;;;;;;;24.70;37.80;;;;;;1605154;74;1255;-62
2023/06/02 10:55:10;;;;;;;;;;;24.70;38.00;;;;;;1596241;74;1496;-63
2023/06/02 10:57:12;;;;;;;;;;;24.70;36.50;;;;;;1591070;73;1142;-63
2023/06/02 10:59:34;;;;;;;;;;;24.70;36.50;;;;;;1594018;74;1234;-63
2023/06/02 11:01:46;;;;;;;;;;;24.60;35.70;;;;;;1588464;74;1506;-64
2023/06/02 11:03:48;;;;;;;;;;;24.60;36.30;;;;;;1600284;74;1512;-64
2023/06/02 11:05:50;;;;;;;;;;;24.60;37.40;;;;;;1596966;74;1496;-64
2023/06/02 11:08:18;;;;;;;;;;;24.70;37.60;;;;;;1589434;74;1525;-64
2023/06/02 11:10:17;;;;;;;;;;;24.70;37.50;;;;;;1596063;74;1615;-64
2023/06/02 11:12:20;;;;;;;;;;;24.70;37.60;;;;;;1593076;74;1716;-64
2023/06/02 11:14:22;;;;;;;;;;;24.70;37.90;;;;;;1581757;73;1912;-65
2023/06/02 11:16:26;;;;;;;;;;;24.80;37.80;;;;;;1582516;73;1590;-64
2023/06/02 11:18:31;;;;;;;;;;;24.80;37.80;;;;;;1594048;73;1159;-64
2023/06/02 11:20:34;;;;;;;;;;;24.80;37.90;;;;;;1592717;73;1534;-64
2023/06/02 11:22:36;;;;;;;;;;;24.80;37.70;;;;;;1581566;73;1398;-64
2023/06/02 11:24:38;;;;;;;;;;;24.80;37.70;;;;;;1584712;73;1193;-63
2023/06/02 11:26:50;;;;;;;;;;;24.80;35.00;;;;;;1589984;73;1352;-62
2023/06/02 11:28:52;;;;;;;;;;;24.70;37.20;;;;;;1590642;73;1501;-63
2023/06/02 11:31:07;;;;;;;;;;;24.80;37.50;;;;;;1594051;73;1030;-63
2023/06/02 11:33:09;;;;;;;;;;;24.80;37.20;;;;;;1583859;73;1307;-64
2023/06/02 11:35:11;;;;;;;;;;;24.90;37.40;;;;;;1588599;73;1942;-63
2023/06/02 11:37:14;;;;;;;;;;;24.70;37.10;;;;;;1591756;73;1339;-63
2023/06/02 11:39:16;;;;;;;;;;;24.70;37.30;;;;;;1591030;73;1469;-62
2023/06/02 11:41:22;;;;;;;;;;;24.70;35.70;;;;;;1593509;73;1306;-61
2023/06/02 11:43:21;;;;;;;;;;;24.60;36.30;;;;;;1592678;73;1321;-65
2023/06/02 11:45:25;;;;;;;;;;;24.60;37.00;;;;;;1586174;73;1336;-63
2023/06/02 11:47:26;;;;;;;;;;;24.70;36.80;;;;;;1586951;73;1288;-61
2023/06/02 11:49:38;;;;;;;;;;;24.50;36.40;;;;;;1589998;73;977;-61
2023/06/02 11:51:39;;;;;;;;;;;24.50;36.30;;;;;;1589741;73;1287;-61
2023/06/02 11:53:45;;;;;;;;;;;24.50;36.20;;;;;;1589093;73;1930;-61
2023/06/02 11:55:47;;;;;;;;;;;24.40;35.30;;;;;;1584069;73;1236;-61
2023/06/02 11:57:49;;;;;;;;;;;24.50;35.90;;;;;;1583791;73;1559;-64
2023/06/02 11:59:53;;;;;;;;;;;24.40;35.60;;;;;;1591942;73;1277;-62
2023/06/02 12:01:55;;;;;;;;;;;24.30;36.50;;;;;;1579034;73;1838;-63
2023/06/02 12:04:06;;;;;;;;;;;24.40;35.70;;;;;;1593216;73;1136;-62
2023/06/02 12:06:09;;;;;;;;;;;24.50;36.90;;;;;;1587972;73;1405;-63
2023/06/02 12:08:11;;;;;;;;;;;24.50;36.80;;;;;;1595324;73;1622;-61
2023/06/02 12:10:13;;;;;;;;;;;24.50;35.70;;;;;;1591518;73;1285;-62